Hauptseite
METAR-TAF:

METAR-TAF

Flughäfen :

J6-a, Niederlande

Bohrplattform

Breite: 53-49-27N, Länge: 2-56-43E, Höhe: 34 m

Beobachtung

Neuester Wetterbericht von vor 39 Minuten, um 09:25 UTC
Wind 23 kt aus Ost
Temperatur 1°C
Luftfeuchtigkeit 59%
Luftdruck 1033 hPa
Sichtweite 10 km oder mehr

METAR: EHJA 250925Z AUTO 09023KT 9999 NSC 01/M06 Q1033 W///H///

Zeit: 11:04 (10:04 UTC)


TAF: fehlend

Wetterbeobachtungen und Prognosen von mehr als 4000 Flughäfen (METAR und TAF Bericht).

Die verfügbaren Stationen werden durch gelbe und rote Markierungen auf der Karte dargestellt.

Führen Sie die Maus auf sie, um den Namen der Station zu sehen.

Darauf klicken, um die Beobachtung von Wetterbeobachtungen und Prognosen zu sehen.

Um die Karte zu ändern : klicken Sie auf den grünen Tasten mit einem schwarzen Kreuz Zum Vergrößern, auf den grünen Button mit einem Gedankenstrich zu verkleinern, oder auf die grünen Pfeile für benachbarte Karten.


METAR-TAF: